Time;durP1;ratioP1;P1;durP2;ratioP2;P2;SDS_P1;SDS_P2;PMS_P1;PMS_P2;Temp;Humidity;BMP_temperature;BMP_pressure;BME280_temperature;BME280_humidity;BME280_pressure;Samples;Min_cycle;Max_cycle;Signal;HPM_P1;HPM_P2
2021/07/29 00:06:19;;;;;;;7.20;3.70;;;;;;;16.08;84.23;100270.69;20901954;28;20049;-71
2021/07/29 00:16:23;;;;;;;7.57;3.13;;;;;;;16.35;83.13;100257.28;20904830;28;20530;-71
2021/07/29 00:26:26;;;;;;;7.38;2.95;;;;;;;16.46;82.73;100257.69;20902756;28;20490;-71
2021/07/29 00:36:28;;;;;;;8.05;3.20;;;;;;;16.21;84.64;100257.84;20901629;28;20041;-72
2021/07/29 00:46:32;;;;;;;6.57;3.30;;;;;;;16.16;84.43;100252.75;20901022;28;20049;-71
2021/07/29 00:56:35;;;;;;;;;;;;;;;16.17;83.94;100245.69;20902302;28;20076;-72
2021/07/29 01:06:37;;;;;;;7.68;3.53;;;;;;;16.27;83.09;100241.72;20899481;28;19921;-72
2021/07/29 01:16:39;;;;;;;5.95;3.08;;;;;;;16.28;82.54;100237.31;20899852;28;20100;-72
2021/07/29 01:26:41;;;;;;;5.97;3.40;;;;;;;16.24;81.99;100238.34;20900409;28;20047;-72
2021/07/29 01:36:44;;;;;;;7.05;3.38;;;;;;;16.26;82.82;100224.16;20899520;28;20546;-72
2021/07/29 01:46:46;;;;;;;6.00;3.60;;;;;;;16.31;82.59;100216.06;20899972;28;20045;-71
2021/07/29 01:56:48;;;;;;;8.68;3.60;;;;;;;16.43;80.48;100220.81;20906686;28;20048;-71
2021/07/29 02:06:49;;;;;;;5.82;3.25;;;;;;;16.52;81.06;100222.19;20913108;28;20057;-71
2021/07/29 02:16:51;;;;;;;6.63;3.35;;;;;;;16.55;80.92;100215.00;20912549;28;20057;-70
2021/07/29 02:26:53;;;;;;;5.93;3.15;;;;;;;16.63;80.57;100212.03;20913082;28;20493;-71
2021/07/29 02:36:55;;;;;;;5.25;2.83;;;;;;;16.76;78.67;100204.44;20910828;28;20461;-72
2021/07/29 02:46:57;;;;;;;5.05;3.00;;;;;;;16.83;79.14;100216.47;20911292;28;20049;-72
2021/07/29 02:56:58;;;;;;;8.27;2.97;;;;;;;16.88;78.91;100217.97;20909834;28;20479;-71
2021/07/29 03:07:00;;;;;;;7.07;3.55;;;;;;;16.89;77.98;100224.13;20906598;28;20103;-71
2021/07/29 03:17:02;;;;;;;7.07;2.85;;;;;;;16.88;78.27;100233.84;20906989;28;20049;-72
2021/07/29 03:27:04;;;;;;;7.10;3.08;;;;;;;16.86;78.38;100242.75;20907682;28;20071;-72
2021/07/29 03:37:06;;;;;;;6.28;3.03;;;;;;;16.89;77.77;100255.88;20906537;28;20072;-72
2021/07/29 03:47:08;;;;;;;4.85;2.70;;;;;;;16.99;76.88;100253.66;20899023;28;20045;-71
2021/07/29 03:57:09;;;;;;;5.38;3.03;;;;;;;17.03;76.87;100252.63;20904434;28;20053;-71
2021/07/29 04:07:11;;;;;;;6.28;2.90;;;;;;;17.19;75.55;100257.13;20901565;28;20045;-71
2021/07/29 04:17:14;;;;;;;5.85;3.28;;;;;;;17.14;74.42;100251.19;20901566;28;20099;-72
2021/07/29 04:27:15;;;;;;;8.65;2.97;;;;;;;17.21;74.81;100256.22;20884003;28;20041;-72
2021/07/29 04:37:18;;;;;;;6.10;3.00;;;;;;;17.23;75.07;100251.72;20901639;28;20049;-72
2021/07/29 04:47:20;;;;;;;5.90;2.88;;;;;;;17.33;73.25;100288.25;20900930;28;20106;-72
2021/07/29 04:57:21;;;;;;;8.90;2.92;;;;;;;17.37;72.73;100283.69;20901801;28;20049;-71
2021/07/29 05:07:23;;;;;;;8.57;2.70;;;;;;;17.54;72.34;100293.53;20900129;28;20111;-71
2021/07/29 05:17:25;;;;;;;6.15;2.80;;;;;;;17.60;71.49;100296.75;20899879;28;20552;-72
2021/07/29 05:27:28;;;;;;;7.03;3.00;;;;;;;17.78;71.13;100289.75;20883175;28;20045;-71
2021/07/29 05:37:30;;;;;;;7.72;3.33;;;;;;;17.89;70.24;100284.81;20915261;28;20048;-71
2021/07/29 05:47:35;;;;;;;6.03;2.88;;;;;;;18.08;68.58;100302.47;20915214;28;20061;-71
2021/07/29 05:57:37;;;;;;;9.30;3.20;;;;;;;18.03;68.98;100302.69;20914923;28;20107;-71
2021/07/29 06:07:39;;;;;;;7.20;3.05;;;;;;;18.00;68.65;100320.50;20913293;28;20345;-71
2021/07/29 06:17:44;;;;;;;7.68;2.97;;;;;;;18.31;67.02;100325.22;20913173;28;20118;-71
2021/07/29 06:27:48;;;;;;;5.70;2.53;;;;;;;18.51;65.33;100332.19;20912514;28;20507;-71
2021/07/29 06:37:52;;;;;;;4.53;2.47;;;;;;;18.79;64.98;100326.38;20911360;28;20048;-71
2021/07/29 06:47:54;;;;;;;7.47;2.75;;;;;;;19.16;63.49;100344.78;20910647;28;20419;-71
2021/07/29 06:57:56;;;;;;;5.90;2.22;;;;;;;19.19;62.14;100352.56;20910548;28;20115;-71
2021/07/29 07:07:58;;;;;;;5.93;2.45;;;;;;;19.69;60.63;100346.41;20861745;28;20053;-70
2021/07/29 07:17:59;;;;;;;7.03;2.38;;;;;;;19.63;59.98;100352.03;20891921;28;20072;-71
2021/07/29 07:28:02;;;;;;;9.52;3.30;;;;;;;19.84;58.51;100349.19;20829918;28;20053;-70
2021/07/29 07:38:04;;;;;;;4.97;2.20;;;;;;;20.25;57.36;100344.19;20844484;28;20118;-69
2021/07/29 07:48:09;;;;;;;5.60;1.80;;;;;;;20.50;56.48;100349.00;20906208;28;20045;-70
2021/07/29 07:58:10;;;;;;;6.78;2.28;;;;;;;20.34;54.87;100346.31;20904890;28;20092;-69
2021/07/29 08:08:12;;;;;;;7.93;2.40;;;;;;;20.32;54.43;100342.06;20904549;28;20661;-69
2021/07/29 08:18:15;;;;;;;6.55;2.40;;;;;;;20.35;55.96;100334.75;20833857;28;20042;-70
2021/07/29 08:28:16;;;;;;;6.88;2.70;;;;;;;20.51;54.46;100345.41;20821403;28;20065;-69
2021/07/29 08:38:18;;;;;;;4.95;2.28;;;;;;;20.84;53.40;100333.72;20820661;28;20131;-69
2021/07/29 08:48:27;;;;;;;4.20;2.03;;;;;;;21.00;52.13;100337.19;20821056;28;20491;-69
2021/07/29 08:58:29;;;;;;;8.35;2.38;;;;;;;21.51;51.57;100332.31;20802925;28;20053;-70
2021/07/29 09:08:48;;;;;;;5.95;2.47;;;;;;;21.75;49.44;100328.13;20891973;28;20045;-70
2021/07/29 09:18:49;;;;;;;6.78;2.65;;;;;;;22.10;48.44;100325.00;20918414;28;20053;-70
2021/07/29 09:28:51;;;;;;;7.32;2.25;;;;;;;22.30;47.87;100336.22;20917301;28;20048;-72
2021/07/29 09:39:19;;;;;;;5.47;2.17;;;;;;;22.41;46.44;100321.22;20916567;28;20041;-69
2021/07/29 09:49:21;;;;;;;4.25;1.88;;;;;;;22.88;44.16;100321.66;20916012;28;20056;-70
2021/07/29 09:59:23;;;;;;;6.15;2.08;;;;;;;23.86;42.80;100309.47;20915684;28;20049;-70
2021/07/29 10:09:27;;;;;;;6.55;2.15;;;;;;;22.89;43.22;100310.03;20913431;28;20466;-70
2021/07/29 10:19:28;;;;;;;4.87;2.17;;;;;;;22.75;44.41;100311.78;20832753;28;20053;-70
2021/07/29 10:29:31;;;;;;;5.30;2.13;;;;;;;22.68;45.04;100315.84;20831511;28;20047;-70
2021/07/29 10:39:56;;;;;;;4.05;1.90;;;;;;;23.18;44.47;100302.69;20836790;28;20096;-70
2021/07/29 10:49:58;;;;;;;7.30;2.50;;;;;;;22.97;44.55;100297.03;20836307;28;20058;-70
2021/07/29 11:00:00;;;;;;;5.82;2.33;;;;;;;23.00;43.51;100278.13;20837848;28;20050;-70
2021/07/29 11:10:03;;;;;;;4.53;2.10;;;;;;;23.24;42.07;100265.72;20837423;28;20057;-70
2021/07/29 11:20:06;;;;;;;4.93;2.13;;;;;;;23.79;41.19;100264.47;20910370;28;20111;-71
2021/07/29 11:30:09;;;;;;;5.13;2.27;;;;;;;23.60;40.72;100260.53;20864027;28;20555;-71
2021/07/29 11:40:21;;;;;;;4.30;2.10;;;;;;;23.97;40.60;100259.59;20867638;28;20507;-71
2021/07/29 11:50:34;;;;;;;4.68;2.28;;;;;;;23.67;40.15;100252.00;20844551;28;20408;-72
2021/07/29 12:00:37;;;;;;;7.47;3.28;;;;;;;23.60;39.14;100242.69;20822262;28;20495;-72
2021/07/29 12:10:39;;;;;;;4.90;2.40;;;;;;;23.74;39.57;100247.06;20831385;28;20045;-71
2021/07/29 12:20:45;;;;;;;5.88;2.70;;;;;;;23.74;39.59;100234.53;20859940;28;20118;-71
2021/07/29 12:30:48;;;;;;;4.80;2.42;;;;;;;23.85;41.48;100232.88;20863305;28;20067;-71
2021/07/29 12:40:49;;;;;;;4.53;2.60;;;;;;;23.21;41.94;100223.19;20900180;28;20049;-70
2021/07/29 12:50:52;;;;;;;4.82;1.98;;;;;;;23.84;40.22;100215.16;20900186;28;20071;-70
2021/07/29 13:00:53;;;;;;;4.00;2.15;;;;;;;24.20;38.98;100217.75;20899747;28;20052;-70
2021/07/29 13:10:55;;;;;;;4.68;2.65;;;;;;;23.48;42.09;100192.81;20889548;28;20053;-68
2021/07/29 13:20:58;;;;;;;7.00;2.42;;;;;;;24.10;40.56;100190.00;20818032;28;20510;-70
2021/07/29 13:31:03;;;;;;;7.47;2.38;;;;;;;23.87;41.49;100185.53;20816141;28;20044;-72
2021/07/29 13:41:06;;;;;;;4.72;1.90;;;;;;;24.38;39.95;100177.22;20816687;28;20474;-71
2021/07/29 13:51:09;;;;;;;4.25;2.15;;;;;;;24.42;40.18;100167.97;20822003;28;20495;-70
2021/07/29 14:01:11;;;;;;;7.40;2.90;;;;;;;24.44;40.20;100166.91;20830704;28;20048;-71
2021/07/29 14:11:14;;;;;;;5.03;2.10;;;;;;;24.36;39.85;100157.72;20842069;28;20045;-70
2021/07/29 14:21:28;;;;;;;4.55;2.25;;;;;;;24.33;39.45;100158.78;20895841;28;20049;-70
2021/07/29 14:31:30;;;;;;;4.65;2.10;;;;;;;24.05;40.02;100147.56;20911141;28;20091;-71
2021/07/29 14:41:33;;;;;;;5.50;2.05;;;;;;;24.49;39.82;100127.25;20910163;28;20045;-70
2021/07/29 14:51:37;;;;;;;3.92;2.08;;;;;;;24.46;40.16;100122.13;20910933;28;20060;-70
2021/07/29 16:14:05;;;;;;;5.55;2.38;;;;;;;24.69;38.74;100085.50;20871672;28;20175;-70
2021/07/29 16:24:08;;;;;;;4.13;1.88;;;;;;;24.51;38.95;100084.28;20886660;28;20061;-70
2021/07/29 16:34:09;;;;;;;3.75;2.05;;;;;;;24.71;38.85;100075.53;20867685;28;20041;-70
2021/07/29 16:44:11;;;;;;;4.03;2.20;;;;;;;24.73;39.57;100070.91;20874423;28;20041;-71
2021/07/29 16:54:13;;;;;;;5.28;1.95;;;;;;;24.57;39.72;100071.25;20884496;28;20040;-71
2021/07/29 17:04:15;;;;;;;8.20;2.42;;;;;;;24.12;39.83;100069.50;20894466;28;20041;-70
2021/07/29 17:14:17;;;;;;;5.25;2.35;;;;;;;24.54;39.85;100073.34;20862957;28;20107;-71
2021/07/29 17:24:19;;;;;;;5.72;2.20;;;;;;;24.46;40.51;100079.31;20891578;28;20147;-71
2021/07/29 17:34:20;;;;;;;5.93;1.92;;;;;;;24.40;39.91;100069.09;20914849;28;20048;-71
2021/07/29 17:44:22;;;;;;;5.60;2.30;;;;;;;24.01;41.42;100062.31;20911875;28;20110;-71
2021/07/29 17:54:24;;;;;;;3.78;2.22;;;;;;;23.88;43.73;100066.88;20912708;28;20434;-72
2021/07/29 18:04:26;;;;;;;5.45;2.10;;;;;;;23.78;42.26;100064.91;20912080;28;20044;-71
2021/07/29 18:14:27;;;;;;;4.60;2.08;;;;;;;23.44;42.77;100063.06;20911035;28;20049;-71
2021/07/29 18:24:29;;;;;;;4.57;2.10;;;;;;;23.21;43.80;100068.28;20893673;28;20388;-71
2021/07/29 18:34:33;;;;;;;4.40;2.00;;;;;;;22.46;46.27;100070.09;20908786;28;20041;-71
2021/07/29 18:44:35;;;;;;;3.88;2.00;;;;;;;22.11;46.71;100069.88;20892011;28;20053;-71
2021/07/29 18:54:38;;;;;;;6.00;2.50;;;;;;;21.84;47.80;100078.78;20907454;28;20052;-71
2021/07/29 19:04:40;;;;;;;5.13;2.20;;;;;;;21.59;48.75;100084.91;20907766;28;20037;-71
2021/07/29 19:14:43;;;;;;;5.38;2.10;;;;;;;21.12;51.67;100094.16;20908136;28;20104;-71
2021/07/29 19:24:45;;;;;;;5.43;2.25;;;;;;;20.63;54.34;100110.56;20907554;28;20045;-71
2021/07/29 19:34:46;;;;;;;4.85;2.45;;;;;;;20.27;56.04;100118.13;20886773;28;20045;-71
2021/07/29 19:44:49;;;;;;;5.35;2.25;;;;;;;19.97;58.90;100121.63;20906383;28;20490;-71
2021/07/29 19:54:50;;;;;;;5.65;2.67;;;;;;;19.78;59.41;100121.00;20902038;28;20049;-71
2021/07/29 20:04:52;;;;;;;6.60;3.13;;;;;;;19.51;59.97;100126.09;20902409;28;20045;-71
2021/07/29 20:14:54;;;;;;;5.05;3.00;;;;;;;19.31;62.04;100132.53;20856968;28;20454;-71
2021/07/29 20:24:56;;;;;;;6.47;3.88;;;;;;;19.29;61.91;100127.28;20819479;28;20049;-70
2021/07/29 20:34:58;;;;;;;7.00;4.20;;;;;;;19.07;63.30;100125.00;20821074;28;20049;-71
2021/07/29 20:45:00;;;;;;;6.78;3.42;;;;;;;18.95;64.21;100125.66;20818134;28;20045;-71
2021/07/29 20:55:07;;;;;;;6.70;3.22;;;;;;;18.62;66.17;100128.31;20817304;28;20054;-70
2021/07/29 21:05:21;;;;;;;5.90;3.15;;;;;;;18.33;67.17;100128.03;20833015;28;20388;-71
2021/07/29 21:15:22;;;;;;;6.03;3.20;;;;;;;17.88;67.87;100125.97;20881626;28;20045;-71
2021/07/29 21:25:25;;;;;;;5.93;3.20;;;;;;;17.70;68.70;100125.03;20916909;28;20475;-71
2021/07/29 21:35:27;;;;;;;6.28;3.22;;;;;;;17.63;68.49;100129.81;20915849;28;20041;-71
2021/07/29 21:45:29;;;;;;;6.30;3.20;;;;;;;17.34;69.38;100125.03;20915133;28;20049;-71
2021/07/29 21:55:34;;;;;;;8.25;3.38;;;;;;;17.21;69.38;100116.00;20915008;28;20095;-71
2021/07/29 22:05:35;;;;;;;;;;;;;;;16.90;69.93;100120.06;20893906;28;20068;-69
2021/07/29 22:15:37;;;;;;;6.47;3.45;;;;;;;16.78;70.95;100121.50;20911907;28;20014;-69
2021/07/29 22:25:39;;;;;;;6.70;3.90;;;;;;;16.83;71.32;100121.28;20911601;28;20486;-69
2021/07/29 22:35:41;;;;;;;6.38;3.70;;;;;;;16.69;72.00;100127.16;20910553;28;20612;-69
2021/07/29 22:45:43;;;;;;;6.68;3.88;;;;;;;16.70;71.89;100130.66;20909610;28;20053;-69
2021/07/29 22:55:44;;;;;;;7.32;3.47;;;;;;;16.57;72.74;100128.56;20909517;28;20041;-69
2021/07/29 23:05:46;;;;;;;6.43;3.70;;;;;;;16.53;73.23;100132.28;20909615;28;20088;-69
2021/07/29 23:15:48;;;;;;;7.90;3.72;;;;;;;16.46;73.22;100125.53;20908536;28;20099;-69
2021/07/29 23:35:52;;;;;;;6.07;3.45;;;;;;;16.26;74.82;100100.00;20904308;28;20098;-70
2021/07/29 23:45:55;;;;;;;6.60;3.67;;;;;;;16.13;75.78;100106.75;20905500;28;20049;-69
2021/07/29 23:55:57;;;;;;;7.22;4.13;;;;;;;16.00;75.75;100116.09;20905200;28;20053;-69
